sensor_id;sensor_type;location;lat;lon;timestamp;P1;durP1;ratioP1;P2;durP2;ratioP2
66593;SDS011;53450;42.584;23.366;2022-10-28T00:00:50;4.88;;;2.63;;
66593;SDS011;53450;42.584;23.366;2022-10-28T00:03:16;6.97;;;2.97;;
66593;SDS011;53450;42.584;23.366;2022-10-28T00:05:42;7.28;;;2.97;;
66593;SDS011;53450;42.584;23.366;2022-10-28T00:08:08;4.70;;;3.03;;
66593;SDS011;53450;42.584;23.366;2022-10-28T00:10:34;5.93;;;3.30;;
66593;SDS011;53450;42.584;23.366;2022-10-28T00:13:00;6.07;;;2.88;;
66593;SDS011;53450;42.584;23.366;2022-10-28T00:15:25;5.68;;;2.92;;
66593;SDS011;53450;42.584;23.366;2022-10-28T00:17:51;7.88;;;2.80;;
66593;SDS011;53450;42.584;23.366;2022-10-28T00:20:17;6.00;;;2.78;;
66593;SDS011;53450;42.584;23.366;2022-10-28T00:23:08;8.60;;;2.70;;
66593;SDS011;53450;42.584;23.366;2022-10-28T00:25:34;6.47;;;2.53;;
66593;SDS011;53450;42.584;23.366;2022-10-28T00:27:59;5.95;;;2.95;;
66593;SDS011;53450;42.584;23.366;2022-10-28T00:30:25;8.13;;;2.88;;
66593;SDS011;53450;42.584;23.366;2022-10-28T00:32:51;7.78;;;2.92;;
66593;SDS011;53450;42.584;23.366;2022-10-28T00:35:16;9.25;;;2.90;;
66593;SDS011;53450;42.584;23.366;2022-10-28T00:37:42;8.20;;;2.78;;
66593;SDS011;53450;42.584;23.366;2022-10-28T00:40:33;6.10;;;2.90;;
66593;SDS011;53450;42.584;23.366;2022-10-28T00:42:59;3.42;;;2.78;;
66593;SDS011;53450;42.584;23.366;2022-10-28T00:45:25;8.93;;;3.05;;
66593;SDS011;53450;42.584;23.366;2022-10-28T00:48:00;6.63;;;3.30;;
66593;SDS011;53450;42.584;23.366;2022-10-28T00:50:44;3.22;;;2.80;;
66593;SDS011;53450;42.584;23.366;2022-10-28T00:53:17;6.93;;;3.83;;
66593;SDS011;53450;42.584;23.366;2022-10-28T00:55:49;9.50;;;2.92;;
66593;SDS011;53450;42.584;23.366;2022-10-28T00:58:15;4.13;;;2.90;;
66593;SDS011;53450;42.584;23.366;2022-10-28T01:00:43;2.92;;;2.60;;
66593;SDS011;53450;42.584;23.366;2022-10-28T01:03:08;3.38;;;2.55;;
66593;SDS011;53450;42.584;23.366;2022-10-28T01:05:35;4.78;;;2.70;;
66593;SDS011;53450;42.584;23.366;2022-10-28T01:08:04;5.22;;;2.83;;
66593;SDS011;53450;42.584;23.366;2022-10-28T01:10:34;3.90;;;2.80;;
66593;SDS011;53450;42.584;23.366;2022-10-28T01:15:45;3.85;;;2.92;;
66593;SDS011;53450;42.584;23.366;2022-10-28T01:18:28;4.72;;;3.15;;
66593;SDS011;53450;42.584;23.366;2022-10-28T01:24:13;8.65;;;3.25;;
66593;SDS011;53450;42.584;23.366;2022-10-28T01:27:07;4.40;;;2.95;;
66593;SDS011;53450;42.584;23.366;2022-10-28T01:35:13;4.70;;;3.00;;
66593;SDS011;53450;42.584;23.366;2022-10-28T01:37:48;6.32;;;3.13;;
66593;SDS011;53450;42.584;23.366;2022-10-28T01:40:17;3.97;;;2.90;;
66593;SDS011;53450;42.584;23.366;2022-10-28T01:42:56;6.93;;;3.15;;
66593;SDS011;53450;42.584;23.366;2022-10-28T01:45:35;9.82;;;4.53;;
66593;SDS011;53450;42.584;23.366;2022-10-28T01:48:29;4.55;;;3.38;;
66593;SDS011;53450;42.584;23.366;2022-10-28T01:53:54;4.88;;;2.83;;
66593;SDS011;53450;42.584;23.366;2022-10-28T01:56:26;4.00;;;2.55;;
66593;SDS011;53450;42.584;23.366;2022-10-28T01:58:55;4.00;;;2.45;;
66593;SDS011;53450;42.584;23.366;2022-10-28T02:01:23;3.85;;;2.80;;
66593;SDS011;53450;42.584;23.366;2022-10-28T02:03:50;5.40;;;3.05;;
66593;SDS011;53450;42.584;23.366;2022-10-28T02:06:18;7.75;;;2.65;;
66593;SDS011;53450;42.584;23.366;2022-10-28T02:12:06;4.22;;;2.90;;
66593;SDS011;53450;42.584;23.366;2022-10-28T02:17:42;4.32;;;2.88;;
66593;SDS011;53450;42.584;23.366;2022-10-28T02:22:54;4.43;;;3.13;;
66593;SDS011;53450;42.584;23.366;2022-10-28T02:25:40;2.50;;;2.30;;
66593;SDS011;53450;42.584;23.366;2022-10-28T02:28:12;3.17;;;2.78;;
66593;SDS011;53450;42.584;23.366;2022-10-28T02:30:45;8.00;;;3.22;;
66593;SDS011;53450;42.584;23.366;2022-10-28T02:33:23;2.45;;;2.25;;
66593;SDS011;53450;42.584;23.366;2022-10-28T02:36:14;4.93;;;2.60;;
66593;SDS011;53450;42.584;23.366;2022-10-28T02:38:44;3.90;;;2.38;;
66593;SDS011;53450;42.584;23.366;2022-10-28T02:41:15;3.00;;;2.63;;
66593;SDS011;53450;42.584;23.366;2022-10-28T02:43:48;5.00;;;2.55;;
66593;SDS011;53450;42.584;23.366;2022-10-28T02:46:17;7.55;;;2.38;;
66593;SDS011;53450;42.584;23.366;2022-10-28T02:48:55;3.70;;;2.10;;
66593;SDS011;53450;42.584;23.366;2022-10-28T02:51:29;6.80;;;2.53;;
66593;SDS011;53450;42.584;23.366;2022-10-28T02:54:07;5.85;;;2.78;;
66593;SDS011;53450;42.584;23.366;2022-10-28T02:56:47;2.67;;;2.20;;
66593;SDS011;53450;42.584;23.366;2022-10-28T02:59:14;2.90;;;2.60;;
66593;SDS011;53450;42.584;23.366;2022-10-28T03:01:39;3.22;;;1.98;;
66593;SDS011;53450;42.584;23.366;2022-10-28T03:04:05;3.15;;;2.35;;
66593;SDS011;53450;42.584;23.366;2022-10-28T03:06:31;5.28;;;2.70;;
66593;SDS011;53450;42.584;23.366;2022-10-28T03:08:56;3.35;;;2.55;;
66593;SDS011;53450;42.584;23.366;2022-10-28T03:11:22;4.38;;;2.45;;
66593;SDS011;53450;42.584;23.366;2022-10-28T03:13:47;7.22;;;2.50;;
66593;SDS011;53450;42.584;23.366;2022-10-28T03:16:13;2.65;;;2.45;;
66593;SDS011;53450;42.584;23.366;2022-10-28T03:18:39;4.55;;;2.55;;
66593;SDS011;53450;42.584;23.366;2022-10-28T03:21:04;2.40;;;2.15;;
66593;SDS011;53450;42.584;23.366;2022-10-28T03:23:30;6.10;;;2.80;;
66593;SDS011;53450;42.584;23.366;2022-10-28T03:25:55;3.85;;;2.80;;
66593;SDS011;53450;42.584;23.366;2022-10-28T03:28:21;4.07;;;2.50;;
66593;SDS011;53450;42.584;23.366;2022-10-28T03:30:46;10.38;;;2.78;;
66593;SDS011;53450;42.584;23.366;2022-10-28T03:33:12;3.60;;;2.58;;
66593;SDS011;53450;42.584;23.366;2022-10-28T03:35:37;2.40;;;2.20;;
66593;SDS011;53450;42.584;23.366;2022-10-28T03:38:03;7.13;;;2.80;;
66593;SDS011;53450;42.584;23.366;2022-10-28T03:40:29;3.45;;;2.58;;
66593;SDS011;53450;42.584;23.366;2022-10-28T03:42:54;4.65;;;3.08;;
66593;SDS011;53450;42.584;23.366;2022-10-28T03:45:20;6.80;;;4.40;;
66593;SDS011;53450;42.584;23.366;2022-10-28T03:47:45;7.18;;;4.38;;
66593;SDS011;53450;42.584;23.366;2022-10-28T03:50:11;7.00;;;4.65;;
66593;SDS011;53450;42.584;23.366;2022-10-28T03:52:37;7.40;;;4.63;;
66593;SDS011;53450;42.584;23.366;2022-10-28T03:55:02;6.50;;;5.07;;
66593;SDS011;53450;42.584;23.366;2022-10-28T03:57:31;11.27;;;5.60;;
66593;SDS011;53450;42.584;23.366;2022-10-28T03:59:58;9.53;;;4.13;;
66593;SDS011;53450;42.584;23.366;2022-10-28T04:02:23;9.80;;;3.73;;
66593;SDS011;53450;42.584;23.366;2022-10-28T04:04:50;5.03;;;3.30;;
66593;SDS011;53450;42.584;23.366;2022-10-28T04:07:16;6.00;;;3.03;;
66593;SDS011;53450;42.584;23.366;2022-10-28T04:09:42;5.78;;;3.15;;
66593;SDS011;53450;42.584;23.366;2022-10-28T04:12:07;7.57;;;3.03;;
66593;SDS011;53450;42.584;23.366;2022-10-28T04:15:00;4.37;;;3.80;;
66593;SDS011;53450;42.584;23.366;2022-10-28T04:17:51;5.27;;;2.80;;
66593;SDS011;53450;42.584;23.366;2022-10-28T04:20:16;11.43;;;4.77;;
66593;SDS011;53450;42.584;23.366;2022-10-28T04:22:42;7.35;;;3.30;;
66593;SDS011;53450;42.584;23.366;2022-10-28T04:25:07;4.00;;;3.10;;
66593;SDS011;53450;42.584;23.366;2022-10-28T04:27:33;6.50;;;3.42;;
66593;SDS011;53450;42.584;23.366;2022-10-28T04:29:59;5.03;;;3.47;;
66593;SDS011;53450;42.584;23.366;2022-10-28T04:32:24;7.32;;;4.03;;
66593;SDS011;53450;42.584;23.366;2022-10-28T04:34:50;6.28;;;3.85;;
66593;SDS011;53450;42.584;23.366;2022-10-28T04:37:16;4.68;;;2.83;;
66593;SDS011;53450;42.584;23.366;2022-10-28T04:39:41;4.18;;;2.67;;
66593;SDS011;53450;42.584;23.366;2022-10-28T04:42:07;10.68;;;3.10;;
66593;SDS011;53450;42.584;23.366;2022-10-28T04:44:32;25.90;;;4.45;;
66593;SDS011;53450;42.584;23.366;2022-10-28T04:46:58;9.75;;;3.50;;
66593;SDS011;53450;42.584;23.366;2022-10-28T04:49:24;4.47;;;3.15;;
66593;SDS011;53450;42.584;23.366;2022-10-28T04:51:49;4.68;;;3.35;;
66593;SDS011;53450;42.584;23.366;2022-10-28T04:54:15;13.07;;;4.07;;
66593;SDS011;53450;42.584;23.366;2022-10-28T04:56:40;5.30;;;3.70;;
66593;SDS011;53450;42.584;23.366;2022-10-28T04:59:06;14.80;;;6.90;;
66593;SDS011;53450;42.584;23.366;2022-10-28T05:01:31;12.00;;;3.73;;
66593;SDS011;53450;42.584;23.366;2022-10-28T05:03:57;15.77;;;7.47;;
66593;SDS011;53450;42.584;23.366;2022-10-28T05:06:22;15.17;;;5.33;;
66593;SDS011;53450;42.584;23.366;2022-10-28T05:08:48;17.37;;;4.53;;
66593;SDS011;53450;42.584;23.366;2022-10-28T05:11:14;18.07;;;5.00;;
66593;SDS011;53450;42.584;23.366;2022-10-28T05:13:39;8.53;;;3.87;;
66593;SDS011;53450;42.584;23.366;2022-10-28T05:16:29;5.57;;;3.20;;
66593;SDS011;53450;42.584;23.366;2022-10-28T05:19:21;16.58;;;3.30;;
66593;SDS011;53450;42.584;23.366;2022-10-28T05:21:47;21.30;;;4.35;;
66593;SDS011;53450;42.584;23.366;2022-10-28T05:24:12;19.40;;;4.00;;
66593;SDS011;53450;42.584;23.366;2022-10-28T05:26:38;6.07;;;3.63;;
66593;SDS011;53450;42.584;23.366;2022-10-28T05:29:29;11.98;;;4.15;;
66593;SDS011;53450;42.584;23.366;2022-10-28T05:31:54;5.93;;;3.20;;
66593;SDS011;53450;42.584;23.366;2022-10-28T05:34:20;7.38;;;3.83;;
66593;SDS011;53450;42.584;23.366;2022-10-28T05:36:45;16.70;;;6.00;;
66593;SDS011;53450;42.584;23.366;2022-10-28T05:39:11;12.73;;;5.07;;
66593;SDS011;53450;42.584;23.366;2022-10-28T05:41:38;14.30;;;5.47;;
66593;SDS011;53450;42.584;23.366;2022-10-28T05:44:04;34.08;;;8.73;;
66593;SDS011;53450;42.584;23.366;2022-10-28T05:46:30;31.50;;;6.50;;
66593;SDS011;53450;42.584;23.366;2022-10-28T05:48:55;21.10;;;5.50;;
66593;SDS011;53450;42.584;23.366;2022-10-28T05:51:21;43.80;;;7.97;;
66593;SDS011;53450;42.584;23.366;2022-10-28T05:53:46;30.05;;;8.70;;
66593;SDS011;53450;42.584;23.366;2022-10-28T05:56:15;38.72;;;12.35;;
66593;SDS011;53450;42.584;23.366;2022-10-28T05:58:41;46.90;;;15.95;;
66593;SDS011;53450;42.584;23.366;2022-10-28T06:01:06;23.83;;;8.52;;
66593;SDS011;53450;42.584;23.366;2022-10-28T06:03:32;21.02;;;7.53;;
66593;SDS011;53450;42.584;23.366;2022-10-28T06:05:58;51.13;;;10.30;;
66593;SDS011;53450;42.584;23.366;2022-10-28T06:08:24;35.42;;;8.52;;
66593;SDS011;53450;42.584;23.366;2022-10-28T06:10:50;36.47;;;9.00;;
66593;SDS011;53450;42.584;23.366;2022-10-28T06:13:16;39.78;;;9.43;;
66593;SDS011;53450;42.584;23.366;2022-10-28T06:15:42;22.60;;;8.90;;
66593;SDS011;53450;42.584;23.366;2022-10-28T06:18:08;19.17;;;8.20;;
66593;SDS011;53450;42.584;23.366;2022-10-28T06:20:33;12.38;;;5.25;;
66593;SDS011;53450;42.584;23.366;2022-10-28T06:22:59;18.55;;;5.43;;
66593;SDS011;53450;42.584;23.366;2022-10-28T06:25:25;23.10;;;4.55;;
66593;SDS011;53450;42.584;23.366;2022-10-28T06:27:52;8.00;;;3.72;;
66593;SDS011;53450;42.584;23.366;2022-10-28T06:30:21;15.23;;;3.78;;
66593;SDS011;53450;42.584;23.366;2022-10-28T06:32:47;21.98;;;4.25;;
66593;SDS011;53450;42.584;23.366;2022-10-28T06:35:13;16.73;;;3.70;;
66593;SDS011;53450;42.584;23.366;2022-10-28T06:37:39;13.77;;;4.50;;
66593;SDS011;53450;42.584;23.366;2022-10-28T06:40:05;9.40;;;4.22;;
66593;SDS011;53450;42.584;23.366;2022-10-28T06:42:31;12.45;;;4.25;;
66593;SDS011;53450;42.584;23.366;2022-10-28T06:44:57;9.35;;;3.40;;
66593;SDS011;53450;42.584;23.366;2022-10-28T06:47:23;4.63;;;3.17;;
66593;SDS011;53450;42.584;23.366;2022-10-28T06:49:48;8.90;;;3.28;;
66593;SDS011;53450;42.584;23.366;2022-10-28T06:52:14;9.23;;;3.83;;
66593;SDS011;53450;42.584;23.366;2022-10-28T06:54:40;13.70;;;7.20;;
66593;SDS011;53450;42.584;23.366;2022-10-28T06:57:05;13.95;;;3.80;;
66593;SDS011;53450;42.584;23.366;2022-10-28T06:59:31;21.88;;;7.30;;
66593;SDS011;53450;42.584;23.366;2022-10-28T07:01:56;9.63;;;4.15;;
66593;SDS011;53450;42.584;23.366;2022-10-28T07:04:22;8.65;;;3.13;;
66593;SDS011;53450;42.584;23.366;2022-10-28T07:06:47;8.05;;;3.00;;
66593;SDS011;53450;42.584;23.366;2022-10-28T07:09:13;6.93;;;2.80;;
66593;SDS011;53450;42.584;23.366;2022-10-28T07:11:39;5.85;;;2.83;;
66593;SDS011;53450;42.584;23.366;2022-10-28T07:14:08;13.18;;;8.27;;
66593;SDS011;53450;42.584;23.366;2022-10-28T07:16:34;9.65;;;6.13;;
66593;SDS011;53450;42.584;23.366;2022-10-28T07:19:00;43.92;;;13.02;;
66593;SDS011;53450;42.584;23.366;2022-10-28T07:21:25;16.40;;;4.65;;
66593;SDS011;53450;42.584;23.366;2022-10-28T07:23:52;5.55;;;2.92;;
66593;SDS011;53450;42.584;23.366;2022-10-28T07:26:20;5.82;;;3.45;;
66593;SDS011;53450;42.584;23.366;2022-10-28T07:28:46;4.68;;;3.60;;
66593;SDS011;53450;42.584;23.366;2022-10-28T07:31:11;16.70;;;3.22;;
66593;SDS011;53450;42.584;23.366;2022-10-28T07:33:37;5.95;;;3.45;;
66593;SDS011;53450;42.584;23.366;2022-10-28T07:36:03;6.93;;;3.80;;
66593;SDS011;53450;42.584;23.366;2022-10-28T07:38:30;9.07;;;3.55;;
66593;SDS011;53450;42.584;23.366;2022-10-28T07:40:55;9.30;;;4.05;;
66593;SDS011;53450;42.584;23.366;2022-10-28T07:43:21;10.52;;;4.30;;
66593;SDS011;53450;42.584;23.366;2022-10-28T07:45:47;6.85;;;3.55;;
66593;SDS011;53450;42.584;23.366;2022-10-28T07:48:12;4.80;;;3.38;;
66593;SDS011;53450;42.584;23.366;2022-10-28T07:50:39;3.85;;;3.25;;
66593;SDS011;53450;42.584;23.366;2022-10-28T07:53:05;7.15;;;3.63;;
66593;SDS011;53450;42.584;23.366;2022-10-28T07:55:31;16.98;;;4.68;;
66593;SDS011;53450;42.584;23.366;2022-10-28T07:57:57;5.97;;;3.60;;
66593;SDS011;53450;42.584;23.366;2022-10-28T08:00:22;7.65;;;3.50;;
66593;SDS011;53450;42.584;23.366;2022-10-28T08:02:48;7.20;;;3.67;;
66593;SDS011;53450;42.584;23.366;2022-10-28T08:05:14;7.70;;;2.97;;
66593;SDS011;53450;42.584;23.366;2022-10-28T08:07:39;15.50;;;3.88;;
66593;SDS011;53450;42.584;23.366;2022-10-28T08:10:05;9.25;;;3.95;;
66593;SDS011;53450;42.584;23.366;2022-10-28T08:12:31;7.45;;;4.18;;
66593;SDS011;53450;42.584;23.366;2022-10-28T08:14:57;7.10;;;3.70;;
66593;SDS011;53450;42.584;23.366;2022-10-28T08:17:22;11.25;;;5.35;;
66593;SDS011;53450;42.584;23.366;2022-10-28T08:19:48;14.32;;;5.90;;
66593;SDS011;53450;42.584;23.366;2022-10-28T08:22:14;16.15;;;4.25;;
66593;SDS011;53450;42.584;23.366;2022-10-28T08:24:39;10.15;;;4.55;;
66593;SDS011;53450;42.584;23.366;2022-10-28T08:27:05;16.05;;;3.72;;
66593;SDS011;53450;42.584;23.366;2022-10-28T08:29:55;6.47;;;3.63;;
66593;SDS011;53450;42.584;23.366;2022-10-28T08:32:21;5.72;;;3.25;;
66593;SDS011;53450;42.584;23.366;2022-10-28T08:34:46;10.23;;;3.45;;
66593;SDS011;53450;42.584;23.366;2022-10-28T08:37:12;11.93;;;5.05;;
66593;SDS011;53450;42.584;23.366;2022-10-28T08:39:40;15.23;;;4.85;;
66593;SDS011;53450;42.584;23.366;2022-10-28T08:50:23;9.37;;;4.30;;
66593;SDS011;53450;42.584;23.366;2022-10-28T08:55:24;8.48;;;4.70;;
66593;SDS011;53450;42.584;23.366;2022-10-28T08:58:06;8.38;;;4.40;;
66593;SDS011;53450;42.584;23.366;2022-10-28T09:00:36;7.85;;;4.18;;
66593;SDS011;53450;42.584;23.366;2022-10-28T09:05:41;19.65;;;10.57;;
66593;SDS011;53450;42.584;23.366;2022-10-28T09:08:22;18.50;;;8.07;;
66593;SDS011;53450;42.584;23.366;2022-10-28T09:18:54;8.38;;;3.10;;
66593;SDS011;53450;42.584;23.366;2022-10-28T09:21:31;8.32;;;3.25;;
66593;SDS011;53450;42.584;23.366;2022-10-28T09:24:00;6.38;;;2.72;;
66593;SDS011;53450;42.584;23.366;2022-10-28T09:26:40;5.07;;;3.25;;
66593;SDS011;53450;42.584;23.366;2022-10-28T09:29:35;10.00;;;3.40;;
66593;SDS011;53450;42.584;23.366;2022-10-28T09:34:47;4.78;;;2.28;;
66593;SDS011;53450;42.584;23.366;2022-10-28T09:37:40;7.65;;;2.22;;
66593;SDS011;53450;42.584;23.366;2022-10-28T09:46:00;4.90;;;2.92;;
66593;SDS011;53450;42.584;23.366;2022-10-28T09:48:40;4.55;;;2.38;;
66593;SDS011;53450;42.584;23.366;2022-10-28T09:51:14;12.57;;;5.10;;
66593;SDS011;53450;42.584;23.366;2022-10-28T09:53:57;7.57;;;3.08;;
66593;SDS011;53450;42.584;23.366;2022-10-28T09:56:24;4.95;;;3.13;;
66593;SDS011;53450;42.584;23.366;2022-10-28T09:58:51;3.90;;;2.95;;
66593;SDS011;53450;42.584;23.366;2022-10-28T10:01:21;6.07;;;2.95;;
66593;SDS011;53450;42.584;23.366;2022-10-28T10:03:48;4.95;;;3.10;;
66593;SDS011;53450;42.584;23.366;2022-10-28T10:06:28;10.73;;;3.83;;
66593;SDS011;53450;42.584;23.366;2022-10-28T10:08:54;12.68;;;4.07;;
66593;SDS011;53450;42.584;23.366;2022-10-28T10:11:24;9.65;;;4.15;;
66593;SDS011;53450;42.584;23.366;2022-10-28T10:13:54;5.72;;;3.72;;
66593;SDS011;53450;42.584;23.366;2022-10-28T10:17:09;11.30;;;5.30;;
66593;SDS011;53450;42.584;23.366;2022-10-28T10:19:58;4.38;;;3.17;;
66593;SDS011;53450;42.584;23.366;2022-10-28T10:22:34;4.53;;;3.33;;
66593;SDS011;53450;42.584;23.366;2022-10-28T10:25:02;14.20;;;3.45;;
66593;SDS011;53450;42.584;23.366;2022-10-28T10:27:29;6.43;;;3.30;;
66593;SDS011;53450;42.584;23.366;2022-10-28T10:29:55;13.15;;;4.05;;
66593;SDS011;53450;42.584;23.366;2022-10-28T10:32:31;8.82;;;3.60;;
66593;SDS011;53450;42.584;23.366;2022-10-28T10:37:29;9.07;;;3.15;;
66593;SDS011;53450;42.584;23.366;2022-10-28T10:40:00;4.28;;;2.88;;
66593;SDS011;53450;42.584;23.366;2022-10-28T10:42:26;4.97;;;3.20;;
66593;SDS011;53450;42.584;23.366;2022-10-28T10:45:14;8.98;;;3.22;;
66593;SDS011;53450;42.584;23.366;2022-10-28T10:47:41;5.55;;;3.00;;
66593;SDS011;53450;42.584;23.366;2022-10-28T10:50:49;5.45;;;3.13;;
66593;SDS011;53450;42.584;23.366;2022-10-28T10:52:57;3.47;;;2.92;;
66593;SDS011;53450;42.584;23.366;2022-10-28T10:55:37;10.50;;;3.45;;
66593;SDS011;53450;42.584;23.366;2022-10-28T10:58:17;8.95;;;3.25;;
66593;SDS011;53450;42.584;23.366;2022-10-28T11:00:49;6.93;;;3.38;;
66593;SDS011;53450;42.584;23.366;2022-10-28T11:03:23;7.57;;;3.35;;
66593;SDS011;53450;42.584;23.366;2022-10-28T11:05:55;14.77;;;3.83;;
66593;SDS011;53450;42.584;23.366;2022-10-28T11:08:27;5.57;;;3.53;;
66593;SDS011;53450;42.584;23.366;2022-10-28T11:11:09;9.13;;;3.67;;
66593;SDS011;53450;42.584;23.366;2022-10-28T11:13:42;5.18;;;3.22;;
66593;SDS011;53450;42.584;23.366;2022-10-28T11:16:20;7.70;;;3.30;;
66593;SDS011;53450;42.584;23.366;2022-10-28T11:18:51;12.63;;;3.90;;
66593;SDS011;53450;42.584;23.366;2022-10-28T11:23:57;9.82;;;4.95;;
66593;SDS011;53450;42.584;23.366;2022-10-28T11:26:36;9.82;;;3.63;;
66593;SDS011;53450;42.584;23.366;2022-10-28T11:29:14;6.90;;;3.03;;
66593;SDS011;53450;42.584;23.366;2022-10-28T11:38:01;7.95;;;3.20;;
66593;SDS011;53450;42.584;23.366;2022-10-28T12:02:03;23.50;;;4.00;;
66593;SDS011;53450;42.584;23.366;2022-10-28T12:04:46;4.40;;;3.03;;
66593;SDS011;53450;42.584;23.366;2022-10-28T12:10:23;12.70;;;3.60;;
66593;SDS011;53450;42.584;23.366;2022-10-28T12:21:36;10.23;;;3.20;;
66593;SDS011;53450;42.584;23.366;2022-10-28T12:24:09;10.35;;;3.00;;
66593;SDS011;53450;42.584;23.366;2022-10-28T12:26:39;11.25;;;2.80;;
66593;SDS011;53450;42.584;23.366;2022-10-28T12:29:14;32.35;;;3.72;;
66593;SDS011;53450;42.584;23.366;2022-10-28T12:32:02;7.18;;;3.22;;
66593;SDS011;53450;42.584;23.366;2022-10-28T12:34:46;4.13;;;2.97;;
66593;SDS011;53450;42.584;23.366;2022-10-28T12:37:20;8.23;;;3.45;;
66593;SDS011;53450;42.584;23.366;2022-10-28T12:40:11;6.82;;;3.28;;
66593;SDS011;53450;42.584;23.366;2022-10-28T12:43:00;5.13;;;3.47;;
66593;SDS011;53450;42.584;23.366;2022-10-28T12:45:37;8.18;;;2.70;;
66593;SDS011;53450;42.584;23.366;2022-10-28T12:53:23;7.07;;;3.28;;
66593;SDS011;53450;42.584;23.366;2022-10-28T12:55:59;5.05;;;3.10;;
66593;SDS011;53450;42.584;23.366;2022-10-28T12:58:33;6.13;;;3.20;;
66593;SDS011;53450;42.584;23.366;2022-10-28T13:01:06;13.25;;;3.50;;
66593;SDS011;53450;42.584;23.366;2022-10-28T13:03:35;5.90;;;2.90;;
66593;SDS011;53450;42.584;23.366;2022-10-28T13:27:37;15.05;;;5.07;;
66593;SDS011;53450;42.584;23.366;2022-10-28T13:30:03;10.43;;;3.85;;
66593;SDS011;53450;42.584;23.366;2022-10-28T13:32:37;3.95;;;2.92;;
66593;SDS011;53450;42.584;23.366;2022-10-28T13:35:18;11.20;;;4.32;;
66593;SDS011;53450;42.584;23.366;2022-10-28T13:38:12;12.98;;;2.95;;
66593;SDS011;53450;42.584;23.366;2022-10-28T13:41:09;6.28;;;2.88;;
66593;SDS011;53450;42.584;23.366;2022-10-28T14:02:34;6.75;;;2.90;;
66593;SDS011;53450;42.584;23.366;2022-10-28T14:05:09;8.82;;;3.58;;
66593;SDS011;53450;42.584;23.366;2022-10-28T14:07:42;23.58;;;4.18;;
66593;SDS011;53450;42.584;23.366;2022-10-28T14:10:25;20.55;;;3.72;;
66593;SDS011;53450;42.584;23.366;2022-10-28T14:13:02;32.05;;;4.72;;
66593;SDS011;53450;42.584;23.366;2022-10-28T14:15:40;22.05;;;3.88;;
66593;SDS011;53450;42.584;23.366;2022-10-28T14:26:01;13.77;;;4.32;;
66593;SDS011;53450;42.584;23.366;2022-10-28T14:33:33;6.35;;;3.85;;
66593;SDS011;53450;42.584;23.366;2022-10-28T14:46:54;7.80;;;4.82;;
66593;SDS011;53450;42.584;23.366;2022-10-28T14:49:56;111.80;;;28.80;;
66593;SDS011;53450;42.584;23.366;2022-10-28T14:52:25;26.05;;;9.85;;
66593;SDS011;53450;42.584;23.366;2022-10-28T14:54:56;17.58;;;6.65;;
66593;SDS011;53450;42.584;23.366;2022-10-28T14:57:26;16.73;;;7.18;;
66593;SDS011;53450;42.584;23.366;2022-10-28T14:59:53;15.27;;;9.52;;
66593;SDS011;53450;42.584;23.366;2022-10-28T15:02:20;18.02;;;10.05;;
66593;SDS011;53450;42.584;23.366;2022-10-28T15:04:56;15.90;;;8.95;;
66593;SDS011;53450;42.584;23.366;2022-10-28T15:07:27;21.67;;;7.15;;
66593;SDS011;53450;42.584;23.366;2022-10-28T15:09:53;37.03;;;12.48;;
66593;SDS011;53450;42.584;23.366;2022-10-28T15:12:21;29.02;;;11.52;;
66593;SDS011;53450;42.584;23.366;2022-10-28T15:14:53;60.83;;;26.33;;
66593;SDS011;53450;42.584;23.366;2022-10-28T15:17:46;75.00;;;33.30;;
66593;SDS011;53450;42.584;23.366;2022-10-28T15:20:28;103.65;;;35.33;;
66593;SDS011;53450;42.584;23.366;2022-10-28T15:25:42;21.60;;;10.80;;
66593;SDS011;53450;42.584;23.366;2022-10-28T15:28:08;27.50;;;12.15;;
66593;SDS011;53450;42.584;23.366;2022-10-28T15:30:37;21.38;;;11.77;;
66593;SDS011;53450;42.584;23.366;2022-10-28T15:36:07;16.10;;;7.90;;
66593;SDS011;53450;42.584;23.366;2022-10-28T15:38:51;26.10;;;7.78;;
66593;SDS011;53450;42.584;23.366;2022-10-28T15:41:56;12.77;;;6.83;;
66593;SDS011;53450;42.584;23.366;2022-10-28T15:44:26;16.35;;;6.97;;
66593;SDS011;53450;42.584;23.366;2022-10-28T15:50:42;110.45;;;37.17;;
66593;SDS011;53450;42.584;23.366;2022-10-28T15:52:43;93.95;;;40.00;;
66593;SDS011;53450;42.584;23.366;2022-10-28T15:57:50;18.50;;;10.77;;
66593;SDS011;53450;42.584;23.366;2022-10-28T16:00:30;10.88;;;5.68;;
66593;SDS011;53450;42.584;23.366;2022-10-28T16:06:22;10.55;;;4.90;;
66593;SDS011;53450;42.584;23.366;2022-10-28T16:08:58;11.07;;;5.65;;
66593;SDS011;53450;42.584;23.366;2022-10-28T16:11:35;21.02;;;6.22;;
66593;SDS011;53450;42.584;23.366;2022-10-28T16:14:15;17.23;;;7.60;;
66593;SDS011;53450;42.584;23.366;2022-10-28T16:17:02;32.97;;;8.63;;
66593;SDS011;53450;42.584;23.366;2022-10-28T16:22:21;50.17;;;27.33;;
66593;SDS011;53450;42.584;23.366;2022-10-28T16:24:50;21.25;;;10.23;;
66593;SDS011;53450;42.584;23.366;2022-10-28T16:27:18;20.00;;;8.57;;
66593;SDS011;53450;42.584;23.366;2022-10-28T16:29:46;12.77;;;7.15;;
66593;SDS011;53450;42.584;23.366;2022-10-28T16:32:12;11.80;;;5.53;;
66593;SDS011;53450;42.584;23.366;2022-10-28T16:34:39;10.13;;;6.05;;
66593;SDS011;53450;42.584;23.366;2022-10-28T16:37:24;42.65;;;6.88;;
66593;SDS011;53450;42.584;23.366;2022-10-28T16:39:51;22.55;;;4.97;;
66593;SDS011;53450;42.584;23.366;2022-10-28T16:42:18;16.02;;;4.97;;
66593;SDS011;53450;42.584;23.366;2022-10-28T16:44:44;7.05;;;4.18;;
66593;SDS011;53450;42.584;23.366;2022-10-28T16:47:11;35.42;;;4.90;;
66593;SDS011;53450;42.584;23.366;2022-10-28T16:49:38;6.03;;;3.90;;
66593;SDS011;53450;42.584;23.366;2022-10-28T16:52:05;11.88;;;4.95;;
66593;SDS011;53450;42.584;23.366;2022-10-28T16:54:31;10.82;;;5.10;;
66593;SDS011;53450;42.584;23.366;2022-10-28T16:56:57;8.63;;;4.55;;
66593;SDS011;53450;42.584;23.366;2022-10-28T16:59:22;6.55;;;4.55;;
66593;SDS011;53450;42.584;23.366;2022-10-28T17:01:48;13.63;;;5.10;;
66593;SDS011;53450;42.584;23.366;2022-10-28T17:04:14;7.32;;;5.22;;
66593;SDS011;53450;42.584;23.366;2022-10-28T17:06:40;115.95;;;9.20;;
66593;SDS011;53450;42.584;23.366;2022-10-28T17:09:06;10.55;;;4.53;;
66593;SDS011;53450;42.584;23.366;2022-10-28T17:11:31;9.65;;;4.50;;
66593;SDS011;53450;42.584;23.366;2022-10-28T17:13:57;5.53;;;4.00;;
66593;SDS011;53450;42.584;23.366;2022-10-28T17:16:47;5.20;;;3.60;;
66593;SDS011;53450;42.584;23.366;2022-10-28T17:19:12;39.17;;;5.57;;
66593;SDS011;53450;42.584;23.366;2022-10-28T17:21:40;10.55;;;5.05;;
66593;SDS011;53450;42.584;23.366;2022-10-28T17:24:06;9.77;;;5.57;;
66593;SDS011;53450;42.584;23.366;2022-10-28T17:26:32;16.85;;;7.70;;
66593;SDS011;53450;42.584;23.366;2022-10-28T17:28:58;13.07;;;7.88;;
66593;SDS011;53450;42.584;23.366;2022-10-28T17:31:23;14.10;;;6.80;;
66593;SDS011;53450;42.584;23.366;2022-10-28T17:33:51;9.98;;;5.70;;
66593;SDS011;53450;42.584;23.366;2022-10-28T17:36:18;8.70;;;5.28;;
66593;SDS011;53450;42.584;23.366;2022-10-28T17:38:43;8.38;;;4.93;;
66593;SDS011;53450;42.584;23.366;2022-10-28T17:41:09;11.13;;;5.78;;
66593;SDS011;53450;42.584;23.366;2022-10-28T17:43:34;11.23;;;4.70;;
66593;SDS011;53450;42.584;23.366;2022-10-28T17:46:04;38.17;;;15.20;;
66593;SDS011;53450;42.584;23.366;2022-10-28T17:48:30;69.93;;;25.15;;
66593;SDS011;53450;42.584;23.366;2022-10-28T17:50:56;128.30;;;38.60;;
66593;SDS011;53450;42.584;23.366;2022-10-28T17:53:21;284.75;;;75.38;;